sim
Sign-in with your pilot id or email,
or register
Callsign
Passwort

Schedule Details

Flight Number: DLH1711 (3)
Departure: Dubrovnik Airport (LDDU) at 17:15
Arrival: Munich Airport (EDDM) at 19:00
Route: Lufthansa Passenger Schedule. Enter filed route here before submitting Pirep.

Weather Information
Getting current METAR information for LDDU 250230Z 08008KT 9999 BKN062 19/15 Q1011 NOSIG
Getting current METAR information for EDDM 250250Z 17004KT 140V210 9999 -RA FEW008 SCT040 13/12 Q1001 TEMPO RA BKN008

Schedule Frequency

Route Map